sensor_id;sensor_type;location;lat;lon;timestamp;pressure;altitude;pressure_sealevel;temperature;humidity
76586;BME280;65251;51.022;13.736;2023-08-06T00:00:00;98624.88;;;16.34;96.06
76586;BME280;65251;51.022;13.736;2023-08-06T00:00:31;98630.25;;;16.34;96.19
76586;BME280;65251;51.022;13.736;2023-08-06T00:01:02;98629.13;;;16.30;95.18
76586;BME280;65251;51.022;13.736;2023-08-06T00:01:33;98621.88;;;16.30;94.70
76586;BME280;65251;51.022;13.736;2023-08-06T00:02:04;98628.06;;;16.31;95.02
76586;BME280;65251;51.022;13.736;2023-08-06T00:02:35;98620.00;;;16.31;96.65
76586;BME280;65251;51.022;13.736;2023-08-06T00:03:06;98625.91;;;16.28;95.35
76586;BME280;65251;51.022;13.736;2023-08-06T00:03:38;98618.91;;;16.27;96.08
76586;BME280;65251;51.022;13.736;2023-08-06T00:04:08;98625.59;;;16.24;95.91
76586;BME280;65251;51.022;13.736;2023-08-06T00:04:39;98618.84;;;16.22;95.56
76586;BME280;65251;51.022;13.736;2023-08-06T00:05:10;98616.16;;;16.22;94.23
76586;BME280;65251;51.022;13.736;2023-08-06T00:05:42;98609.16;;;16.20;95.16
76586;BME280;65251;51.022;13.736;2023-08-06T00:06:13;98614.00;;;16.18;94.29
76586;BME280;65251;51.022;13.736;2023-08-06T00:06:44;98609.69;;;16.17;95.92
76586;BME280;65251;51.022;13.736;2023-08-06T00:07:14;98613.72;;;16.15;96.62
76586;BME280;65251;51.022;13.736;2023-08-06T00:07:46;98612.66;;;16.16;94.95
76586;BME280;65251;51.022;13.736;2023-08-06T00:08:17;98607.81;;;16.18;95.07
76586;BME280;65251;51.022;13.736;2023-08-06T00:08:47;98601.66;;;16.23;95.89
76586;BME280;65251;51.022;13.736;2023-08-06T00:09:18;98602.22;;;16.25;94.89
76586;BME280;65251;51.022;13.736;2023-08-06T00:09:50;98600.06;;;16.27;95.67
76586;BME280;65251;51.022;13.736;2023-08-06T00:10:21;98589.06;;;16.28;94.16
76586;BME280;65251;51.022;13.736;2023-08-06T00:10:51;98600.13;;;16.32;93.04
76586;BME280;65251;51.022;13.736;2023-08-06T00:11:22;98593.41;;;16.34;93.68
76586;BME280;65251;51.022;13.736;2023-08-06T00:11:54;98601.50;;;16.34;93.69
76586;BME280;65251;51.022;13.736;2023-08-06T00:12:25;98590.44;;;16.31;94.11
76586;BME280;65251;51.022;13.736;2023-08-06T00:12:56;98592.06;;;16.32;94.71
76586;BME280;65251;51.022;13.736;2023-08-06T00:13:26;98593.41;;;16.34;94.63
76586;BME280;65251;51.022;13.736;2023-08-06T00:13:58;98591.00;;;16.33;94.78
76586;BME280;65251;51.022;13.736;2023-08-06T00:14:30;98588.00;;;16.29;93.53
76586;BME280;65251;51.022;13.736;2023-08-06T00:15:01;98588.00;;;16.29;94.90
76586;BME280;65251;51.022;13.736;2023-08-06T00:15:32;98584.81;;;16.32;95.21
76586;BME280;65251;51.022;13.736;2023-08-06T00:16:10;98587.22;;;16.34;95.70
76586;BME280;65251;51.022;13.736;2023-08-06T00:16:43;98585.09;;;16.36;94.07
76586;BME280;65251;51.022;13.736;2023-08-06T00:17:14;98590.75;;;16.39;95.16
76586;BME280;65251;51.022;13.736;2023-08-06T00:17:44;98586.19;;;16.40;94.02
76586;BME280;65251;51.022;13.736;2023-08-06T00:18:16;98584.31;;;16.40;94.58
76586;BME280;65251;51.022;13.736;2023-08-06T00:18:47;98582.16;;;16.42;93.44
76586;BME280;65251;51.022;13.736;2023-08-06T00:19:18;98579.47;;;16.42;93.59
76586;BME280;65251;51.022;13.736;2023-08-06T00:19:48;98587.28;;;16.44;93.71
76586;BME280;65251;51.022;13.736;2023-08-06T00:20:20;98574.91;;;16.43;93.66
76586;BME280;65251;51.022;13.736;2023-08-06T00:20:52;98587.03;;;16.45;94.90
76586;BME280;65251;51.022;13.736;2023-08-06T00:21:23;98573.84;;;16.44;94.00
76586;BME280;65251;51.022;13.736;2023-08-06T00:21:54;98582.19;;;16.47;94.03
76586;BME280;65251;51.022;13.736;2023-08-06T00:22:25;98578.44;;;16.48;95.41
76586;BME280;65251;51.022;13.736;2023-08-06T00:22:56;98579.25;;;16.49;94.01
76586;BME280;65251;51.022;13.736;2023-08-06T00:23:27;98576.00;;;16.47;94.46
76586;BME280;65251;51.022;13.736;2023-08-06T00:23:58;98583.28;;;16.46;95.31
76586;BME280;65251;51.022;13.736;2023-08-06T00:24:29;98576.28;;;16.45;95.30
76586;BME280;65251;51.022;13.736;2023-08-06T00:25:00;98578.69;;;16.47;94.74
76586;BME280;65251;51.022;13.736;2023-08-06T00:25:31;98577.09;;;16.46;94.32
76586;BME280;65251;51.022;13.736;2023-08-06T00:26:02;98577.63;;;16.48;94.67
76586;BME280;65251;51.022;13.736;2023-08-06T00:26:33;98577.63;;;16.48;94.06
76586;BME280;65251;51.022;13.736;2023-08-06T00:27:04;98576.56;;;16.49;95.74
76586;BME280;65251;51.022;13.736;2023-08-06T00:27:35;98574.13;;;16.47;94.22
76586;BME280;65251;51.022;13.736;2023-08-06T00:28:07;98582.19;;;16.47;94.51
76586;BME280;65251;51.022;13.736;2023-08-06T00:28:38;98582.75;;;16.49;94.55
76586;BME280;65251;51.022;13.736;2023-08-06T00:29:09;98578.75;;;16.52;94.61
76586;BME280;65251;51.022;13.736;2023-08-06T00:29:41;98580.38;;;16.53;94.11
76586;BME280;65251;51.022;13.736;2023-08-06T00:30:13;98586.00;;;16.51;95.27
76586;BME280;65251;51.022;13.736;2023-08-06T00:30:43;98586.81;;;16.52;95.14
76586;BME280;65251;51.022;13.736;2023-08-06T00:31:14;98583.56;;;16.50;94.30
76586;BME280;65251;51.022;13.736;2023-08-06T00:31:46;98587.06;;;16.50;94.59
76586;BME280;65251;51.022;13.736;2023-08-06T00:32:17;98584.63;;;16.49;95.01
76586;BME280;65251;51.022;13.736;2023-08-06T00:32:48;98586.25;;;16.50;94.80
76586;BME280;65251;51.022;13.736;2023-08-06T00:33:19;98589.19;;;16.48;94.30
76586;BME280;65251;51.022;13.736;2023-08-06T00:33:50;98583.81;;;16.48;95.03
76586;BME280;65251;51.022;13.736;2023-08-06T00:34:21;98588.94;;;16.50;95.10
76586;BME280;65251;51.022;13.736;2023-08-06T00:34:52;98583.56;;;16.50;94.37
76586;BME280;65251;51.022;13.736;2023-08-06T00:35:23;98584.63;;;16.49;94.01
76586;BME280;65251;51.022;13.736;2023-08-06T00:35:54;98587.31;;;16.49;94.53
76586;BME280;65251;51.022;13.736;2023-08-06T00:36:25;98583.81;;;16.48;94.43
76586;BME280;65251;51.022;13.736;2023-08-06T00:36:56;98577.63;;;16.48;94.66
76586;BME280;65251;51.022;13.736;2023-08-06T00:37:27;98579.78;;;16.46;94.05
76586;BME280;65251;51.022;13.736;2023-08-06T00:37:58;98587.59;;;16.47;94.14
76586;BME280;65251;51.022;13.736;2023-08-06T00:38:29;98585.69;;;16.48;95.66
76586;BME280;65251;51.022;13.736;2023-08-06T00:39:00;98582.72;;;16.44;94.75
76586;BME280;65251;51.022;13.736;2023-08-06T00:39:31;98584.59;;;16.44;95.45
76586;BME280;65251;51.022;13.736;2023-08-06T00:40:02;98579.78;;;16.46;95.99
76586;BME280;65251;51.022;13.736;2023-08-06T00:40:33;98589.72;;;16.45;94.66
76586;BME280;65251;51.022;13.736;2023-08-06T00:41:05;98588.09;;;16.44;94.23
76586;BME280;65251;51.022;13.736;2023-08-06T00:41:35;98583.22;;;16.41;95.29
76586;BME280;65251;51.022;13.736;2023-08-06T00:42:06;98583.78;;;16.43;94.91
76586;BME280;65251;51.022;13.736;2023-08-06T00:42:37;98574.91;;;16.43;95.30
76586;BME280;65251;51.022;13.736;2023-08-06T00:43:09;98578.66;;;16.42;95.42
76586;BME280;65251;51.022;13.736;2023-08-06T00:43:39;98565.47;;;16.35;94.39
76586;BME280;65251;51.022;13.736;2023-08-06T00:44:10;98578.41;;;16.43;94.75
76586;BME280;65251;51.022;13.736;2023-08-06T00:44:42;98575.72;;;16.43;95.48
76586;BME280;65251;51.022;13.736;2023-08-06T00:45:13;98578.41;;;16.43;94.41
76586;BME280;65251;51.022;13.736;2023-08-06T00:45:44;98578.41;;;16.43;95.06
76586;BME280;65251;51.022;13.736;2023-08-06T00:46:16;98573.03;;;16.43;94.52
76586;BME280;65251;51.022;13.736;2023-08-06T00:46:47;98571.66;;;16.41;94.08
76586;BME280;65251;51.022;13.736;2023-08-06T00:47:18;98570.03;;;16.40;95.12
76586;BME280;65251;51.022;13.736;2023-08-06T00:47:50;98571.91;;;16.39;96.11
76586;BME280;65251;51.022;13.736;2023-08-06T00:48:21;98567.91;;;16.37;95.67
76586;BME280;65251;51.022;13.736;2023-08-06T00:48:52;98570.59;;;16.37;95.12
76586;BME280;65251;51.022;13.736;2023-08-06T00:49:23;98564.66;;;16.35;95.92
76586;BME280;65251;51.022;13.736;2023-08-06T00:49:55;98565.47;;;16.35;96.45
76586;BME280;65251;51.022;13.736;2023-08-06T00:50:26;98563.03;;;16.34;95.09
76586;BME280;65251;51.022;13.736;2023-08-06T00:50:57;98561.41;;;16.33;95.82
76586;BME280;65251;51.022;13.736;2023-08-06T00:51:28;98561.16;;;16.34;95.26
76586;BME280;65251;51.022;13.736;2023-08-06T00:52:00;98564.91;;;16.33;95.76
76586;BME280;65251;51.022;13.736;2023-08-06T00:52:31;98558.22;;;16.36;95.49
76586;BME280;65251;51.022;13.736;2023-08-06T00:53:02;98562.78;;;16.35;96.98
76586;BME280;65251;51.022;13.736;2023-08-06T00:53:33;98564.41;;;16.36;95.51
76586;BME280;65251;51.022;13.736;2023-08-06T00:54:05;98555.53;;;16.36;96.77
76586;BME280;65251;51.022;13.736;2023-08-06T00:54:36;98558.75;;;16.38;95.23
76586;BME280;65251;51.022;13.736;2023-08-06T00:55:08;98557.16;;;16.37;95.58
76586;BME280;65251;51.022;13.736;2023-08-06T00:55:39;98556.06;;;16.38;96.06
76586;BME280;65251;51.022;13.736;2023-08-06T00:56:11;98562.53;;;16.37;95.43
76586;BME280;65251;51.022;13.736;2023-08-06T00:56:43;98563.03;;;16.34;96.79
76586;BME280;65251;51.022;13.736;2023-08-06T00:57:14;98557.66;;;16.34;96.51
76586;BME280;65251;51.022;13.736;2023-08-06T00:57:45;98553.09;;;16.34;96.67
76586;BME280;65251;51.022;13.736;2023-08-06T00:58:18;98549.59;;;16.34;96.46
76586;BME280;65251;51.022;13.736;2023-08-06T00:58:49;98549.59;;;16.34;97.31
76586;BME280;65251;51.022;13.736;2023-08-06T00:59:20;98548.78;;;16.33;95.43
76586;BME280;65251;51.022;13.736;2023-08-06T00:59:53;98557.91;;;16.32;95.61
76586;BME280;65251;51.022;13.736;2023-08-06T01:00:26;98547.16;;;16.32;96.26
76586;BME280;65251;51.022;13.736;2023-08-06T01:00:56;98549.84;;;16.32;97.39
76586;BME280;65251;51.022;13.736;2023-08-06T01:01:27;98549.28;;;16.30;95.75
76586;BME280;65251;51.022;13.736;2023-08-06T01:01:58;98550.09;;;16.31;95.85
76586;BME280;65251;51.022;13.736;2023-08-06T01:02:29;98543.13;;;16.30;96.00
76586;BME280;65251;51.022;13.736;2023-08-06T01:03:00;98545.78;;;16.30;95.85
76586;BME280;65251;51.022;13.736;2023-08-06T01:03:31;98548.75;;;16.28;97.51
76586;BME280;65251;51.022;13.736;2023-08-06T01:04:03;98550.06;;;16.26;97.27
76586;BME280;65251;51.022;13.736;2023-08-06T01:04:34;98545.25;;;16.28;97.68
76586;BME280;65251;51.022;13.736;2023-08-06T01:05:05;98543.63;;;16.27;97.53
76586;BME280;65251;51.022;13.736;2023-08-06T01:05:37;98540.69;;;16.28;96.85
76586;BME280;65251;51.022;13.736;2023-08-06T01:06:08;98540.69;;;16.28;98.24
76586;BME280;65251;51.022;13.736;2023-08-06T01:06:46;98543.63;;;16.27;97.69
76586;BME280;65251;51.022;13.736;2023-08-06T01:07:29;98537.19;;;16.28;97.19
76586;BME280;65251;51.022;13.736;2023-08-06T01:08:16;98541.50;;;16.29;97.54
76586;BME280;65251;51.022;13.736;2023-08-06T01:08:58;98538.53;;;16.30;96.29
76586;BME280;65251;51.022;13.736;2023-08-06T01:09:37;98532.63;;;16.28;97.67
76586;BME280;65251;51.022;13.736;2023-08-06T01:10:24;98534.22;;;16.29;97.33
76586;BME280;65251;51.022;13.736;2023-08-06T01:11:08;98534.22;;;16.29;96.19
76586;BME280;65251;51.022;13.736;2023-08-06T01:11:54;98529.13;;;16.28;97.18
76586;BME280;65251;51.022;13.736;2023-08-06T01:12:39;98532.88;;;16.27;96.54
76586;BME280;65251;51.022;13.736;2023-08-06T01:13:23;98529.38;;;16.26;97.49
76586;BME280;65251;51.022;13.736;2023-08-06T01:14:02;98532.06;;;16.26;96.80
76586;BME280;65251;51.022;13.736;2023-08-06T01:14:50;98531.50;;;16.24;96.86
76586;BME280;65251;51.022;13.736;2023-08-06T01:15:30;98526.38;;;16.23;97.34
76586;BME280;65251;51.022;13.736;2023-08-06T01:16:03;98523.41;;;16.19;98.10
76586;BME280;65251;51.022;13.736;2023-08-06T01:16:37;98525.03;;;16.20;98.66
76586;BME280;65251;51.022;13.736;2023-08-06T01:17:12;98528.25;;;16.17;98.06
76586;BME280;65251;51.022;13.736;2023-08-06T01:17:45;98527.19;;;16.18;97.39
76586;BME280;65251;51.022;13.736;2023-08-06T01:18:16;98522.63;;;16.18;97.20
76586;BME280;65251;51.022;13.736;2023-08-06T01:18:47;98524.22;;;16.19;97.31
76586;BME280;65251;51.022;13.736;2023-08-06T01:19:21;98522.06;;;16.22;98.40
76586;BME280;65251;51.022;13.736;2023-08-06T01:19:51;98530.69;;;16.24;96.70
76586;BME280;65251;51.022;13.736;2023-08-06T01:20:28;98527.72;;;16.20;97.48
76586;BME280;65251;51.022;13.736;2023-08-06T01:20:58;98523.97;;;16.21;98.20
76586;BME280;65251;51.022;13.736;2023-08-06T01:21:30;98525.84;;;16.20;97.79
76586;BME280;65251;51.022;13.736;2023-08-06T01:22:01;98528.53;;;16.20;96.46
76586;BME280;65251;51.022;13.736;2023-08-06T01:22:31;98522.34;;;16.20;97.66
76586;BME280;65251;51.022;13.736;2023-08-06T01:23:02;98522.88;;;16.22;96.92
76586;BME280;65251;51.022;13.736;2023-08-06T01:23:34;98526.38;;;16.23;97.67
76586;BME280;65251;51.022;13.736;2023-08-06T01:24:05;98521.81;;;16.23;97.93
76586;BME280;65251;51.022;13.736;2023-08-06T01:24:36;98530.16;;;16.22;97.67
76586;BME280;65251;51.022;13.736;2023-08-06T01:25:08;98519.13;;;16.23;96.56
76586;BME280;65251;51.022;13.736;2023-08-06T01:25:47;98523.44;;;16.24;96.38
76586;BME280;65251;51.022;13.736;2023-08-06T01:26:26;98528.00;;;16.24;96.07
76586;BME280;65251;51.022;13.736;2023-08-06T01:27:06;98519.13;;;16.23;96.23
76586;BME280;65251;51.022;13.736;2023-08-06T01:27:45;98518.31;;;16.23;96.23
76586;BME280;65251;51.022;13.736;2023-08-06T01:28:24;98519.69;;;16.25;95.80
76586;BME280;65251;51.022;13.736;2023-08-06T01:29:06;98519.69;;;16.25;96.31
76586;BME280;65251;51.022;13.736;2023-08-06T01:29:43;98514.31;;;16.25;96.25
76586;BME280;65251;51.022;13.736;2023-08-06T01:30:19;98518.63;;;16.26;95.71
76586;BME280;65251;51.022;13.736;2023-08-06T01:30:55;98511.06;;;16.23;96.67
76586;BME280;65251;51.022;13.736;2023-08-06T01:31:31;98505.44;;;16.25;95.12
76586;BME280;65251;51.022;13.736;2023-08-06T01:32:05;98517.00;;;16.25;95.56
76586;BME280;65251;51.022;13.736;2023-08-06T01:32:39;98517.56;;;16.27;95.53
76586;BME280;65251;51.022;13.736;2023-08-06T01:33:17;98512.44;;;16.26;96.23
76586;BME280;65251;51.022;13.736;2023-08-06T01:33:51;98510.56;;;16.26;97.66
76586;BME280;65251;51.022;13.736;2023-08-06T01:34:28;98513.75;;;16.23;96.48
76586;BME280;65251;51.022;13.736;2023-08-06T01:35:04;98508.13;;;16.25;97.63
76586;BME280;65251;51.022;13.736;2023-08-06T01:35:38;98504.38;;;16.26;97.56
76586;BME280;65251;51.022;13.736;2023-08-06T01:36:09;98509.75;;;16.26;97.07
76586;BME280;65251;51.022;13.736;2023-08-06T01:36:42;98513.25;;;16.26;96.27
76586;BME280;65251;51.022;13.736;2023-08-06T01:37:13;98511.63;;;16.25;97.82
76586;BME280;65251;51.022;13.736;2023-08-06T01:37:45;98497.94;;;16.27;97.50
76586;BME280;65251;51.022;13.736;2023-08-06T01:38:17;98511.63;;;16.25;96.11
76586;BME280;65251;51.022;13.736;2023-08-06T01:38:48;98513.22;;;16.21;96.96
76586;BME280;65251;51.022;13.736;2023-08-06T01:39:19;98508.63;;;16.16;97.55
76586;BME280;65251;51.022;13.736;2023-08-06T01:39:51;98503.53;;;16.20;97.47
76586;BME280;65251;51.022;13.736;2023-08-06T01:40:23;98514.56;;;16.18;98.44
76586;BME280;65251;51.022;13.736;2023-08-06T01:40:53;98511.31;;;16.16;96.27
76586;BME280;65251;51.022;13.736;2023-08-06T01:41:24;98501.09;;;16.13;97.41
76586;BME280;65251;51.022;13.736;2023-08-06T01:41:55;98506.72;;;16.12;97.03
76586;BME280;65251;51.022;13.736;2023-08-06T01:42:26;98505.88;;;16.06;97.04
76586;BME280;65251;51.022;13.736;2023-08-06T01:42:57;98502.88;;;16.03;97.16
76586;BME280;65251;51.022;13.736;2023-08-06T01:43:28;98502.88;;;16.03;99.15
76586;BME280;65251;51.022;13.736;2023-08-06T01:43:59;98504.50;;;16.04;97.31
76586;BME280;65251;51.022;13.736;2023-08-06T01:44:30;98496.94;;;16.01;97.60
76586;BME280;65251;51.022;13.736;2023-08-06T01:45:01;98500.44;;;16.01;97.76
76586;BME280;65251;51.022;13.736;2023-08-06T01:45:32;98501.00;;;15.98;99.46
76586;BME280;65251;51.022;13.736;2023-08-06T01:46:03;98499.63;;;15.96;98.70
76586;BME280;65251;51.022;13.736;2023-08-06T01:46:34;98500.13;;;15.93;99.31
76586;BME280;65251;51.022;13.736;2023-08-06T01:47:05;98490.16;;;15.88;99.01
76586;BME280;65251;51.022;13.736;2023-08-06T01:47:36;98498.53;;;15.92;99.71
76586;BME280;65251;51.022;13.736;2023-08-06T01:48:07;98489.91;;;15.90;98.96
76586;BME280;65251;51.022;13.736;2023-08-06T01:48:39;98494.72;;;15.88;100.00
76586;BME280;65251;51.022;13.736;2023-08-06T01:49:09;98494.72;;;15.88;100.00
76586;BME280;65251;51.022;13.736;2023-08-06T01:49:40;98498.72;;;15.85;99.31
76586;BME280;65251;51.022;13.736;2023-08-06T01:50:11;98496.84;;;15.85;98.75
76586;BME280;65251;51.022;13.736;2023-08-06T01:50:44;98494.41;;;15.84;100.00
76586;BME280;65251;51.022;13.736;2023-08-06T01:51:14;98494.41;;;15.84;98.72
76586;BME280;65251;51.022;13.736;2023-08-06T01:51:45;98495.22;;;15.84;100.00
76586;BME280;65251;51.022;13.736;2023-08-06T01:52:16;98493.06;;;15.81;100.00
76586;BME280;65251;51.022;13.736;2023-08-06T01:52:48;98494.94;;;15.81;100.00
76586;BME280;65251;51.022;13.736;2023-08-06T01:53:18;98495.50;;;15.83;99.38
76586;BME280;65251;51.022;13.736;2023-08-06T01:53:49;98492.28;;;15.86;100.00
76586;BME280;65251;51.022;13.736;2023-08-06T01:54:20;98493.91;;;15.87;99.51
76586;BME280;65251;51.022;13.736;2023-08-06T01:54:51;98495.78;;;15.87;100.00
76586;BME280;65251;51.022;13.736;2023-08-06T01:55:22;98492.59;;;15.90;99.89
76586;BME280;65251;51.022;13.736;2023-08-06T01:55:53;98491.28;;;15.92;99.25
76586;BME280;65251;51.022;13.736;2023-08-06T01:56:23;98497.75;;;15.96;99.41
76586;BME280;65251;51.022;13.736;2023-08-06T01:56:55;98497.75;;;15.96;98.50
76586;BME280;65251;51.022;13.736;2023-08-06T01:57:26;98495.63;;;15.98;98.35
76586;BME280;65251;51.022;13.736;2023-08-06T01:57:56;98504.19;;;16.00;99.94
76586;BME280;65251;51.022;13.736;2023-08-06T01:58:27;98495.06;;;16.01;98.77
76586;BME280;65251;51.022;13.736;2023-08-06T01:58:59;98495.63;;;16.03;99.16
76586;BME280;65251;51.022;13.736;2023-08-06T01:59:30;98494.81;;;16.03;99.30
76586;BME280;65251;51.022;13.736;2023-08-06T02:00:00;98497.25;;;16.04;97.21
76586;BME280;65251;51.022;13.736;2023-08-06T02:00:31;98494.56;;;16.04;97.90
76586;BME280;65251;51.022;13.736;2023-08-06T02:01:03;98495.88;;;16.02;98.43
76586;BME280;65251;51.022;13.736;2023-08-06T02:01:33;98495.63;;;15.98;99.06
76586;BME280;65251;51.022;13.736;2023-08-06T02:02:04;98503.63;;;15.93;99.35
76586;BME280;65251;51.022;13.736;2023-08-06T02:02:36;98495.31;;;15.95;99.84
76586;BME280;65251;51.022;13.736;2023-08-06T02:03:07;98492.09;;;15.93;99.87
76586;BME280;65251;51.022;13.736;2023-08-06T02:03:38;98496.94;;;15.96;99.88
76586;BME280;65251;51.022;13.736;2023-08-06T02:04:08;98495.63;;;15.98;99.25
76586;BME280;65251;51.022;13.736;2023-08-06T02:04:40;98494.53;;;15.99;99.67
76586;BME280;65251;51.022;13.736;2023-08-06T02:05:11;98498.81;;;16.00;97.81
76586;BME280;65251;51.022;13.736;2023-08-06T02:05:43;98493.19;;;16.02;97.86
76586;BME280;65251;51.022;13.736;2023-08-06T02:06:14;98498.56;;;16.02;99.37
76586;BME280;65251;51.022;13.736;2023-08-06T02:06:46;98492.94;;;16.03;98.82
76586;BME280;65251;51.022;13.736;2023-08-06T02:07:16;98491.84;;;15.99;99.66
76586;BME280;65251;51.022;13.736;2023-08-06T02:07:47;98495.06;;;15.96;99.15
76586;BME280;65251;51.022;13.736;2023-08-06T02:08:18;98497.44;;;15.93;99.50
76586;BME280;65251;51.022;13.736;2023-08-06T02:08:50;98497.44;;;15.93;99.36
76586;BME280;65251;51.022;13.736;2023-08-06T02:09:20;98499.28;;;15.87;98.52
76586;BME280;65251;51.022;13.736;2023-08-06T02:09:51;98500.59;;;15.84;100.00
76586;BME280;65251;51.022;13.736;2023-08-06T02:10:23;98503.81;;;15.81;99.29
76586;BME280;65251;51.022;13.736;2023-08-06T02:10:53;98500.06;;;15.82;99.54
76586;BME280;65251;51.022;13.736;2023-08-06T02:11:24;98494.13;;;15.80;100.00
76586;BME280;65251;51.022;13.736;2023-08-06T02:11:56;98496.28;;;15.83;98.97
76586;BME280;65251;51.022;13.736;2023-08-06T02:12:27;98501.41;;;15.85;98.97
76586;BME280;65251;51.022;13.736;2023-08-06T02:12:57;98500.91;;;15.88;99.69
76586;BME280;65251;51.022;13.736;2023-08-06T02:13:28;98508.72;;;15.90;99.41
76586;BME280;65251;51.022;13.736;2023-08-06T02:14:00;98507.94;;;15.94;99.77
76586;BME280;65251;51.022;13.736;2023-08-06T02:14:30;98511.44;;;15.95;100.00
76586;BME280;65251;51.022;13.736;2023-08-06T02:15:01;98506.38;;;15.98;98.95
76586;BME280;65251;51.022;13.736;2023-08-06T02:15:32;98508.75;;;16.00;99.66
76586;BME280;65251;51.022;13.736;2023-08-06T02:16:06;98504.75;;;16.02;98.76
76586;BME280;65251;51.022;13.736;2023-08-06T02:16:37;98502.06;;;16.02;99.59
76586;BME280;65251;51.022;13.736;2023-08-06T02:17:08;98503.19;;;16.06;99.06
76586;BME280;65251;51.022;13.736;2023-08-06T02:17:39;98501.00;;;16.03;98.73
76586;BME280;65251;51.022;13.736;2023-08-06T02:18:10;98496.69;;;16.02;98.79
76586;BME280;65251;51.022;13.736;2023-08-06T02:18:41;98505.06;;;16.06;99.70
76586;BME280;65251;51.022;13.736;2023-08-06T02:19:12;98497.25;;;16.04;99.16
76586;BME280;65251;51.022;13.736;2023-08-06T02:19:43;98503.44;;;16.05;98.62
76586;BME280;65251;51.022;13.736;2023-08-06T02:20:14;98500.50;;;16.06;99.09
76586;BME280;65251;51.022;13.736;2023-08-06T02:20:56;98501.03;;;16.08;97.70
76586;BME280;65251;51.022;13.736;2023-08-06T02:21:27;98498.63;;;16.07;98.37
76586;BME280;65251;51.022;13.736;2023-08-06T02:21:59;98500.22;;;16.08;97.57
76586;BME280;65251;51.022;13.736;2023-08-06T02:22:30;98496.22;;;16.10;98.23
76586;BME280;65251;51.022;13.736;2023-08-06T02:23:00;98497.53;;;16.08;97.83
76586;BME280;65251;51.022;13.736;2023-08-06T02:23:31;98502.91;;;16.08;98.57
76586;BME280;65251;51.022;13.736;2023-08-06T02:24:03;98494.56;;;16.04;97.78
76586;BME280;65251;51.022;13.736;2023-08-06T02:24:34;98497.75;;;16.01;98.37
76586;BME280;65251;51.022;13.736;2023-08-06T02:25:05;98497.22;;;15.99;98.78
76586;BME280;65251;51.022;13.736;2023-08-06T02:25:36;98499.31;;;15.92;98.18
76586;BME280;65251;51.022;13.736;2023-08-06T02:26:07;98503.59;;;15.88;98.35
76586;BME280;65251;51.022;13.736;2023-08-06T02:26:38;98497.41;;;15.88;98.33
76586;BME280;65251;51.022;13.736;2023-08-06T02:27:09;98496.59;;;15.87;99.80
76586;BME280;65251;51.022;13.736;2023-08-06T02:27:40;98498.44;;;15.81;99.85
76586;BME280;65251;51.022;13.736;2023-08-06T02:28:11;98487.13;;;15.79;99.39
76586;BME280;65251;51.022;13.736;2023-08-06T02:28:42;98490.91;;;15.78;100.00
76586;BME280;65251;51.022;13.736;2023-08-06T02:29:12;98493.84;;;15.77;100.00
76586;BME280;65251;51.022;13.736;2023-08-06T02:29:44;98496.53;;;15.77;100.00
76586;BME280;65251;51.022;13.736;2023-08-06T02:30:15;98487.66;;;15.76;100.00
76586;BME280;65251;51.022;13.736;2023-08-06T02:30:49;98487.13;;;15.79;100.00
76586;BME280;65251;51.022;13.736;2023-08-06T02:31:20;98492.53;;;15.84;100.00
76586;BME280;65251;51.022;13.736;2023-08-06T02:31:52;98499.28;;;15.87;99.89
76586;BME280;65251;51.022;13.736;2023-08-06T02:32:23;98491.78;;;15.89;100.00
76586;BME280;65251;51.022;13.736;2023-08-06T02:32:53;98490.47;;;15.92;100.00
76586;BME280;65251;51.022;13.736;2023-08-06T02:33:24;98491.00;;;15.94;99.90
76586;BME280;65251;51.022;13.736;2023-08-06T02:33:55;98491.56;;;15.96;99.41
76586;BME280;65251;51.022;13.736;2023-08-06T02:34:27;98493.72;;;15.99;98.65
76586;BME280;65251;51.022;13.736;2023-08-06T02:34:58;98490.25;;;15.98;98.48
76586;BME280;65251;51.022;13.736;2023-08-06T02:35:29;98493.47;;;16.00;98.54
76586;BME280;65251;51.022;13.736;2023-08-06T02:36:02;98499.63;;;16.01;99.34
76586;BME280;65251;51.022;13.736;2023-08-06T02:36:36;98491.88;;;16.04;100.00
76586;BME280;65251;51.022;13.736;2023-08-06T02:37:06;98493.75;;;16.04;99.71
76586;BME280;65251;51.022;13.736;2023-08-06T02:37:37;98488.13;;;16.05;99.62
76586;BME280;65251;51.022;13.736;2023-08-06T02:38:09;98491.91;;;16.09;98.43
76586;BME280;65251;51.022;13.736;2023-08-06T02:38:40;98485.44;;;16.05;97.78
76586;BME280;65251;51.022;13.736;2023-08-06T02:39:10;98488.94;;;16.06;97.87
76586;BME280;65251;51.022;13.736;2023-08-06T02:39:41;98487.88;;;16.07;98.81
76586;BME280;65251;51.022;13.736;2023-08-06T02:40:12;98485.72;;;16.09;99.48
76586;BME280;65251;51.022;13.736;2023-08-06T02:40:44;98484.66;;;16.10;99.41
76586;BME280;65251;51.022;13.736;2023-08-06T02:41:15;98486.78;;;16.08;99.84
76586;BME280;65251;51.022;13.736;2023-08-06T02:41:45;98479.28;;;16.10;99.10
76586;BME280;65251;51.022;13.736;2023-08-06T02:42:16;98470.72;;;16.13;99.47
76586;BME280;65251;51.022;13.736;2023-08-06T02:42:48;98481.47;;;16.13;98.47
76586;BME280;65251;51.022;13.736;2023-08-06T02:43:18;98475.28;;;16.12;99.03
76586;BME280;65251;51.022;13.736;2023-08-06T02:43:49;98473.94;;;16.15;98.09
76586;BME280;65251;51.022;13.736;2023-08-06T02:44:21;98484.44;;;16.16;97.46
76586;BME280;65251;51.022;13.736;2023-08-06T02:44:52;98475.31;;;16.17;98.30
76586;BME280;65251;51.022;13.736;2023-08-06T02:45:22;98474.25;;;16.18;97.81
76586;BME280;65251;51.022;13.736;2023-08-06T02:45:57;98470.75;;;16.18;96.58
76586;BME280;65251;51.022;13.736;2023-08-06T02:46:29;98469.38;;;16.15;97.98
76586;BME280;65251;51.022;13.736;2023-08-06T02:47:00;98468.56;;;16.15;98.33
76586;BME280;65251;51.022;13.736;2023-08-06T02:47:30;98477.69;;;16.14;98.21